Nearby METAR Reports

 

EGOS - RAF Shawbury, Shropshire, UK
Distance from station: NE 9mi, 14km
Updated: 19/11/2018 00:50
Few Clouds
Few Clouds
 Wind from NNW
Wind: NNW 7 mph , 11 km/h
Temperature: 3°C
Wind Chill: 0°C
Dew Point: 0°C
Humidity: 81%
Barometer: 1028 hPa
Clouds: Few Clouds
Visibility: 6 miles , 10 km
Cloud details: Few Clouds 671 m
2018/11/19 00:50 EGOS 190050Z AUTO 34006KT 9999 FEW022/// 03/M00 Q1028
KNUQ - Moffett Nas/Mtn, California, USA
Distance from station: N 9mi, 14km
Updated: 19/11/2018 01:23
Smoke, Clear
Smoke, Clear
 Wind from calm
Wind: Calm
Temperature: 12°C
Dew Point: 8°C
Humidity: 77%
Barometer: 1016.9 hPa
Summary: Smoke
Clouds: Clear
Visibility: 2 1/2 miles , 4 km
2018/11/19 01:23 KNUQ 190123Z 00000KT 2 1/2SM FU CLR 12/08 A3003 RMK AO2 T01220083
 
KPAO - Palo Alto, California, USA
Distance from station: NNW 14mi, 23km
Updated: 19/11/2018 00:47
Smoke, Few clouds
Smoke, Few clouds
 Wind from WNW
Wind: WNW 6 mph , 9 km/h
Temperature: 13°C
Dew Point: 9°C
Humidity: 77%
Barometer: 1017.3 hPa
Summary: Smoke
Clouds: Few Clouds
Visibility: 2 miles , 3 km
Cloud details: Few Clouds 6096 m
2018/11/19 00:47 KPAO 190047Z 30005KT 2SM FU FEW200 13/09 A3004
KRHV - San Jose/Reid, California, USA
Distance from station: ENE 12mi, 19km
Updated: 19/11/2018 00:47
Smoke, Mostly cloudy
Smoke, Mostly cloudy
 Wind from NW
Wind: NW 9 mph , 15 km/h
Temperature: 15°C
Dew Point: 8°C
Humidity: 63%
Barometer: 1016.3 hPa
Summary: Smoke
Clouds: Mostly cloudy
Visibility: 3 miles , 5 km
Cloud details: Mostly cloudy 762 m
2018/11/19 00:47 KRHV 190047Z 32008KT 3SM FU BKN025 15/08 A3001
 
KOAK - Oakland, California, USA
Distance from station: NNW 31mi, 50km
Updated: 19/11/2018 00:53
Haze, Smoke, Mostly cloudy
Haze, Smoke, Mostly cloudy
 Wind from N
Wind: N 5 mph , 7 km/h
Temperature: 13°C
Dew Point: 8°C
Humidity: 72%
Barometer: 1016.9 hPa
Summary: Haze, Smoke
Clouds: Mostly cloudy
Visibility: 2 miles , 3 km
Cloud details: Mostly cloudy 518 m
Mostly cloudy 7620 m
2018/11/19 00:53 KOAK 190053Z 01004KT 2SM HZ FU BKN017 BKN250 13/08 A3003 RMK AO2 SLP169 FU BKN017 T01330083
KSQL - San Carlos Airpo, California, USA
Distance from station: NW 21mi, 34km
Updated: 19/11/2018 01:47
Haze, Smoke, Mostly cloudy
Haze, Smoke, Mostly cloudy
 Wind from calm
Wind: Calm
Temperature: 13°C
Dew Point: 11°C
Humidity: 88%
Barometer: 1016.9 hPa
Summary: Haze, Smoke
Clouds: Mostly cloudy
Visibility: 2 miles , 3 km
Cloud details: Few Clouds 579 m
Mostly cloudy 6096 m
2018/11/19 01:47 KSQL 190147Z 00000KT 2SM HZ FU FEW019 BKN200 13/11 A3003
 
KSFO - San Francisco, California, USA
Distance from station: NW 30mi, 49km
Updated: 19/11/2018 00:56
Haze, Smoke, Mostly cloudy
Haze, Smoke, Mostly cloudy
 Wind from E
Wind: E 3 mph , 6 km/h
Temperature: 13°C
Dew Point: 10°C
Humidity: 82%
Barometer: 1016.6 hPa
Summary: Haze, Smoke
Clouds: Mostly cloudy
Visibility: 2 miles , 3 km
Cloud details: Mostly cloudy 6096 m
2018/11/19 00:56 KSFO 190056Z 08003KT 2SM HZ FU BKN200 13/10 A3002 RMK AO2 SLP164 T01330100 $
KE16 - San Martin, California, USA
Distance from station: ESE 27mi, 43km
Updated: 19/11/2018 01:30
Haze, Mostly cloudy
Haze, Mostly cloudy
 Wind from NNW
Wind: NNW 3 mph , 6 km/h
Temperature: 15°C
Dew Point: 5°C
Humidity: 51%
Barometer: 1017.3 hPa
Summary: Haze
Clouds: Mostly cloudy
Visibility: 5 miles , 8 km
Cloud details: Mostly cloudy 549 m
2018/11/19 01:30 KE16 190130Z AUTO 34003KT 5SM HZ BKN018 15/05 A3004 RMK AO2
 
KWVI - Watsonville, California, USA
Distance from station: SSE 27mi, 44km
Updated: 19/11/2018 00:53
Mist, Clear
Mist, Clear
 Wind from calm
Wind: Calm
Temperature: 12°C
Dew Point: 11°C
Humidity: 94%
Barometer: 1017.3 hPa
Summary: Mist
Clouds: Clear
Visibility: 6 miles , 10 km
2018/11/19 00:53 KWVI 190053Z AUTO 00000KT 6SM BR CLR 12/11 A3004 RMK AO2 SLP172 T01220106
KHAF - Half Moon Bay, California, USA
Distance from station: WNW 31mi, 50km
Updated: 19/11/2018 01:40
Mist, Mostly cloudy
Mist, Mostly cloudy
 Wind from calm
Wind: Calm
Temperature: 9°C
Dew Point: 8°C
Humidity: 94%
Barometer: 1017.6 hPa
Summary: Mist
Clouds: Mostly cloudy
Visibility: 2 1/2 miles , 4 km
Cloud details: Mostly cloudy 91 m
2018/11/19 01:40 KHAF 190140Z AUTO 00000KT 2 1/2SM BR BKN003 09/08 A3005 RMK AO2
 
KHWD - Hayward, California, USA
Distance from station: N 28mi, 44km
Updated: 19/11/2018 00:54
Haze, Smoke, Partly cloudy
Haze, Smoke, Partly cloudy
 Wind from calm
Wind: Calm
Temperature: 15°C
Dew Point: 8°C
Humidity: 63%
Barometer: 1016.6 hPa
Summary: Haze, Smoke
Clouds: Partly cloudy
Visibility: 2 miles , 3 km
Cloud details: Partly cloudy 518 m
2018/11/19 00:54 KHWD 190054Z 00000KT 2SM HZ FU SCT017 15/08 A3002 RMK AO2 SLP176 T01500083
KLVK - Livermore, California, USA
Distance from station: NNE 31mi, 51km
Updated: 19/11/2018 01:33
Haze, Smoke, Clear
Haze, Smoke, Clear
 Wind from NE
Wind: NE 5 mph , 7 km/h
Temperature: 12°C
Dew Point: 1°C
Humidity: 47%
Barometer: 1016.6 hPa
Summary: Haze, Smoke
Clouds: Clear
Visibility: 1 3/4 miles , 2.8 km
2018/11/19 01:33 KLVK 190133Z 05004KT 1 3/4SM HZ FU CLR 12/01 A3002 RMK AO2 T01170006